Airfield :
LOGIN :

Register | Disclaimer

   EN    FR    IT 

 










Legend :    VFR   Marginal VFR   IFR   Intensive IFR   Very Intensive IFR
Visi :
Ceiling :
>= 8 km
>= 3000ft
5 to 8 km
1000 to 3000 ft
1500m to 5 km
500 to 1000 ft
800 to 1500m
200 to 500 ft
< 800m
< 200 ft
Symbols :   Thunderstorms  Fog  Heavy snow  Heavy precipitations  Wind > 20 kt
SIGMETs :     Misc.  Thunderstorms  Icing  Turbulence  Mountain Waves  Volcanic Ashes






- Airport Elevation : 194 ft
- IATA code : LME


LFRM - Le Mans

CURRENT METAR :
  • 291930Z AUTO 12002KT 9999 OVC044 05/03 Q1018

EXPIRED METARs :
  • 291900Z AUTO 11002KT 9999 SCT045 05/03 Q1017 NOSIG
  • 291830Z AUTO VRB02KT CAVOK 05/03 Q1017 NOSIG
  • 291800Z AUTO 16002KT CAVOK 06/03 Q1017 NOSIG
  • 291730Z AUTO 15002KT 9999 FEW037 07/03 Q1017 NOSIG
  • 291700Z AUTO 22003KT CAVOK 09/03 Q1017 NOSIG

TAF TAF LFRM
Valid from the 29 at 12:00 until the 30 at 12:00 UTC


291100Z 2912/3012 25008KT 9999 SCT025 SCT050
BECMG 3002/3004 17010KT 4000 -RA BKN008 OVC020
TEMPO 3008/3012 2000 RA OVC004



MET'MAP, your aeronautical weather chart ! - Copyright ORBIFLY December 2007 - Disclaimer

ORBIFLY MET'MAP TEAM :

Programming & Development : Alexandra Zaïnal
Concept & original design : Baudouin d'Aumeries
Assistance for programming : Marc-Olivier Méhu
Technical & hardware support : Manuel Goepfert

Contact : metmap@orbifly.com




SOURCES & CREDITS :

   NOAA